Time;durP1;ratioP1;P1;durP2;ratioP2;P2;SDS_P1;SDS_P2;PMS_P1;PMS_P2;Temp;Humidity;BMP_temperature;BMP_pressure;BME280_temperature;BME280_humidity;BME280_pressure;Samples;Min_cycle;Max_cycle;Signal;HPM_P1;HPM_P2
2023/04/08 00:01:01;;;;;;;7.63;5.60;;;;;;;6.21;81.96;101462.06;5073605;28;20639;-82
2023/04/08 00:03:28;;;;;;;6.67;5.57;;;;;;;6.20;82.03;101467.41;5063860;28;20204;-82
2023/04/08 00:05:54;;;;;;;6.40;5.70;;;;;;;6.17;82.32;101463.06;5053472;28;20765;-82
2023/04/08 00:08:21;;;;;;;6.00;5.17;;;;;;;6.16;82.61;101465.78;5062289;28;20566;-82
2023/04/08 00:10:49;;;;;;;9.60;5.70;;;;;;;6.14;82.63;101471.09;5073246;28;20205;-82
2023/04/08 00:13:16;;;;;;;5.97;5.23;;;;;;;6.14;82.65;101473.75;5071105;28;20208;-82
2023/04/08 00:15:42;;;;;;;7.67;5.30;;;;;;;6.13;82.88;101474.66;5073450;28;20205;-82
2023/04/08 00:18:09;;;;;;;8.23;5.57;;;;;;;6.12;82.72;101467.63;5073622;28;20676;-82
2023/04/08 00:20:35;;;;;;;6.97;5.40;;;;;;;6.12;83.27;101469.41;5055001;28;20206;-82
2023/04/08 00:23:02;;;;;;;7.70;5.63;;;;;;;6.11;83.23;101476.50;5053830;28;20202;-82
2023/04/08 00:25:28;;;;;;;6.33;5.47;;;;;;;6.11;83.40;101479.13;5070740;28;20211;-82
2023/04/08 00:27:56;;;;;;;6.83;5.43;;;;;;;6.10;83.61;101466.81;5066452;28;20316;-81
2023/04/08 00:30:23;;;;;;;5.97;5.20;;;;;;;6.08;83.60;101473.97;5071211;28;20220;-81
2023/04/08 00:32:50;;;;;;;9.40;5.53;;;;;;;6.08;83.57;101473.09;5072414;28;20216;-81
2023/04/08 00:35:16;;;;;;;7.63;5.77;;;;;;;6.05;84.06;101468.78;5056482;28;20204;-81
2023/04/08 00:37:43;;;;;;;7.53;6.13;;;;;;;6.05;84.05;101473.19;5060707;28;20233;-82
2023/04/08 00:40:10;;;;;;;6.77;5.63;;;;;;;6.04;84.36;101472.31;5053314;28;20209;-81
2023/04/08 00:42:36;;;;;;;6.90;5.03;;;;;;;6.02;84.72;101476.78;5053244;28;20286;-82
2023/04/08 00:45:05;;;;;;;7.13;5.87;;;;;;;6.02;84.80;101462.72;5053520;28;20253;-82
2023/04/08 00:47:31;;;;;;;6.70;5.40;;;;;;;5.99;84.95;101468.09;5052844;28;20317;-81
2023/04/08 00:49:58;;;;;;;6.53;5.33;;;;;;;5.98;85.31;101472.50;5053372;28;20558;-83
2023/04/08 00:52:25;;;;;;;6.43;5.70;;;;;;;5.97;85.52;101465.50;5053265;28;20209;-82
2023/04/08 00:54:51;;;;;;;8.73;6.33;;;;;;;5.95;86.07;101469.09;5053145;28;20275;-82
2023/04/08 00:57:18;;;;;;;8.60;6.90;;;;;;;5.93;85.76;101470.00;5060977;28;20225;-82
2023/04/08 00:59:44;;;;;;;8.07;6.10;;;;;;;5.93;86.22;101467.34;5061584;28;20202;-83
2023/04/08 01:02:18;;;;;;;7.17;5.60;;;;;;;5.91;86.49;101471.81;5071339;28;20223;-82
2023/04/08 01:04:53;;;;;;;8.50;7.00;;;;;;;5.88;86.78;101473.69;5064442;28;20642;-82
2023/04/08 01:07:22;;;;;;;8.00;6.53;;;;;;;5.86;87.08;101467.56;5067773;28;20309;-83
2023/04/08 01:09:54;;;;;;;9.20;6.53;;;;;;;5.84;87.13;101472.03;5056522;28;20225;-83
2023/04/08 01:12:27;;;;;;;8.93;6.63;;;;;;;5.83;87.75;101478.25;5057035;28;20299;-82
2023/04/08 01:15:00;;;;;;;8.93;6.77;;;;;;;5.82;87.58;101463.28;5070615;28;20205;-83
2023/04/08 01:17:30;;;;;;;9.40;7.03;;;;;;;5.79;88.04;101480.09;5067744;28;20619;-83
2023/04/08 01:19:59;;;;;;;8.90;6.50;;;;;;;5.80;88.08;101473.03;5061918;28;20230;-82
2023/04/08 01:22:34;;;;;;;7.37;6.17;;;;;;;5.79;88.37;101485.38;5070256;28;20228;-82
2023/04/08 01:25:05;;;;;;;10.20;7.10;;;;;;;5.77;88.54;101483.69;5058354;28;20201;-83
2023/04/08 01:27:33;;;;;;;8.83;6.67;;;;;;;5.76;88.66;101481.97;5067122;28;20229;-83
2023/04/08 01:30:02;;;;;;;9.17;6.77;;;;;;;5.76;88.65;101487.25;5054490;28;20202;-82
2023/04/08 01:32:29;;;;;;;10.33;7.40;;;;;;;5.75;88.81;101488.16;5062489;28;20204;-82
2023/04/08 01:34:56;;;;;;;9.23;7.30;;;;;;;5.72;89.25;101475.06;5063428;28;20201;-82
2023/04/08 01:37:25;;;;;;;9.27;7.43;;;;;;;5.72;89.76;101467.13;5067500;28;20221;-82
2023/04/08 01:39:54;;;;;;;9.37;7.23;;;;;;;5.71;89.71;101468.91;5059488;28;20201;-81
2023/04/08 01:42:23;;;;;;;10.27;7.70;;;;;;;5.70;90.07;101467.19;5052591;28;20241;-81
2023/04/08 01:44:53;;;;;;;9.80;7.27;;;;;;;5.70;90.13;101475.13;5064796;28;20825;-81
2023/04/08 01:47:19;;;;;;;10.00;7.37;;;;;;;5.71;90.31;101465.41;5067314;28;20224;-82
2023/04/08 01:49:47;;;;;;;10.50;7.47;;;;;;;5.71;90.54;101449.56;5062060;28;20824;-83
2023/04/08 01:52:16;;;;;;;10.13;7.90;;;;;;;5.72;90.25;101448.63;5061382;28;20204;-82
2023/04/08 01:54:42;;;;;;;9.60;7.77;;;;;;;5.70;90.68;101461.91;5070251;28;20213;-81
2023/04/08 01:57:14;;;;;;;8.70;6.33;;;;;;;5.69;90.69;101459.31;5065816;28;20217;-81
2023/04/08 01:59:42;;;;;;;10.70;7.87;;;;;;;5.69;90.76;101460.16;5051580;28;20219;-82
2023/04/08 02:02:10;;;;;;;8.37;6.63;;;;;;;5.70;90.98;101466.31;5064818;28;20303;-82
2023/04/08 02:04:37;;;;;;;13.80;8.00;;;;;;;5.70;91.01;101461.03;5060072;28;20205;-82
2023/04/08 02:07:04;;;;;;;9.63;7.50;;;;;;;5.71;91.08;101462.75;5065670;28;20228;-82
2023/04/08 02:09:31;;;;;;;9.20;7.57;;;;;;;5.72;91.18;101472.44;5059883;28;20776;-83
2023/04/08 02:11:57;;;;;;;9.60;7.33;;;;;;;5.71;91.63;101468.06;5071059;28;20224;-82
2023/04/08 02:14:25;;;;;;;11.10;7.80;;;;;;;5.71;91.46;101475.97;5071246;28;20208;-82
2023/04/08 02:16:54;;;;;;;9.63;7.73;;;;;;;5.71;91.49;101468.91;5063371;28;20240;-82
2023/04/08 02:19:28;;;;;;;10.83;8.03;;;;;;;5.71;91.53;101468.06;5051456;28;20749;-81
2023/04/08 02:22:00;;;;;;;10.40;8.17;;;;;;;5.71;91.80;101470.69;5063361;28;20212;-82
2023/04/08 02:24:29;;;;;;;12.13;8.17;;;;;;;5.71;92.00;101465.41;5068730;28;20197;-82
2023/04/08 02:26:56;;;;;;;10.80;8.37;;;;;;;5.74;92.14;101470.56;5071167;28;20221;-82
2023/04/08 02:29:24;;;;;;;10.83;7.80;;;;;;;5.73;92.44;101469.72;5071826;28;20707;-81
2023/04/08 02:31:52;;;;;;;11.37;8.40;;;;;;;5.74;92.39;101467.94;5071665;28;20205;-81
2023/04/08 02:34:21;;;;;;;12.10;7.73;;;;;;;5.75;92.69;101467.88;5055969;28;20574;-80
2023/04/08 02:36:50;;;;;;;10.93;7.93;;;;;;;5.74;92.42;101468.78;5053869;28;20217;-82
2023/04/08 02:39:16;;;;;;;10.47;7.90;;;;;;;5.72;92.62;101464.50;5064047;28;20212;-82
2023/04/08 02:41:43;;;;;;;9.97;7.60;;;;;;;5.69;92.84;101462.81;5069014;28;20221;-82
2023/04/08 02:44:09;;;;;;;12.47;8.00;;;;;;;5.71;92.59;101465.41;5068403;28;20212;-82
2023/04/08 02:46:36;;;;;;;10.10;7.37;;;;;;;5.69;92.62;101468.09;5051346;28;20229;-82
2023/04/08 02:49:02;;;;;;;9.87;7.73;;;;;;;5.71;92.85;101475.97;5055466;28;20826;-82
2023/04/08 02:51:29;;;;;;;10.97;8.33;;;;;;;5.69;93.09;101480.44;5070997;28;20879;-81
2023/04/08 02:53:57;;;;;;;10.50;7.77;;;;;;;5.68;92.92;101484.00;5065945;28;20222;-82
2023/04/08 02:56:23;;;;;;;11.27;7.73;;;;;;;5.68;92.96;101484.84;5074578;28;20224;-82
2023/04/08 02:58:51;;;;;;;9.80;7.40;;;;;;;5.68;92.97;101476.06;5055111;28;20198;-82
2023/04/08 03:01:17;;;;;;;9.93;7.73;;;;;;;5.68;93.27;101489.28;5062673;28;20244;-81
2023/04/08 03:03:43;;;;;;;12.10;8.20;;;;;;;5.66;93.25;101489.31;5058859;28;20205;-83
2023/04/08 03:06:10;;;;;;;9.80;8.20;;;;;;;5.67;93.13;101492.84;5063706;28;20236;-82
2023/04/08 03:08:36;;;;;;;12.43;7.97;;;;;;;5.67;93.14;101490.19;5071439;28;20288;-83
2023/04/08 03:11:04;;;;;;;9.73;7.73;;;;;;;5.67;93.34;101492.84;5066721;28;20209;-83
2023/04/08 03:13:31;;;;;;;10.50;8.67;;;;;;;5.67;93.51;101499.00;5074439;28;20201;-83
2023/04/08 03:15:57;;;;;;;10.10;7.97;;;;;;;5.67;93.53;101490.19;5073172;28;20207;-82
2023/04/08 03:18:24;;;;;;;9.93;8.17;;;;;;;5.68;93.62;101492.78;5069764;28;20216;-82
2023/04/08 03:20:51;;;;;;;9.93;7.73;;;;;;;5.69;93.51;101498.94;5056378;28;20224;-82
2023/04/08 03:23:17;;;;;;;10.77;7.70;;;;;;;5.68;93.65;101494.56;5062293;28;20218;-82
2023/04/08 03:25:44;;;;;;;10.40;7.77;;;;;;;5.67;93.79;101500.75;5054039;28;20202;-83
2023/04/08 03:28:12;;;;;;;9.40;7.77;;;;;;;5.66;93.88;101501.66;5067357;28;20716;-81
2023/04/08 03:30:38;;;;;;;9.97;7.97;;;;;;;5.66;93.57;101506.97;5054918;28;20205;-82
2023/04/08 03:33:06;;;;;;;11.20;8.07;;;;;;;5.66;93.81;101506.97;5058594;28;20571;-82
2023/04/08 03:35:33;;;;;;;12.60;8.93;;;;;;;5.66;93.73;101512.25;5054422;28;20208;-82
2023/04/08 03:37:59;;;;;;;11.30;8.40;;;;;;;5.66;94.04;101501.66;5054463;28;20590;-82
2023/04/08 03:40:26;;;;;;;11.83;8.03;;;;;;;5.66;94.03;101501.66;5061460;28;20787;-82
2023/04/08 03:42:52;;;;;;;12.37;7.63;;;;;;;5.65;94.15;101498.16;5068112;28;20231;-82
2023/04/08 03:45:20;;;;;;;14.27;8.50;;;;;;;5.65;94.05;101499.94;5068299;28;20201;-83
2023/04/08 03:47:47;;;;;;;10.83;8.57;;;;;;;5.66;94.06;101514.88;5066050;28;20226;-82
2023/04/08 03:50:13;;;;;;;10.63;8.13;;;;;;;5.65;94.33;101506.09;5060632;28;20208;-82
2023/04/08 03:52:40;;;;;;;12.63;8.20;;;;;;;5.62;94.22;101500.88;5056561;28;20209;-83
2023/04/08 03:55:07;;;;;;;11.47;8.40;;;;;;;5.60;94.25;101505.34;5059805;28;20206;-82
2023/04/08 03:57:33;;;;;;;11.53;8.67;;;;;;;5.59;94.24;101498.31;5068756;28;20236;-82
2023/04/08 04:00:00;;;;;;;12.53;8.57;;;;;;;5.59;94.52;101500.97;5072032;28;20197;-82
2023/04/08 04:02:27;;;;;;;12.67;9.27;;;;;;;5.56;94.50;101498.41;5073159;28;20231;-82
2023/04/08 04:04:54;;;;;;;15.23;9.57;;;;;;;5.56;94.58;101507.22;5069695;28;20204;-82
2023/04/08 04:07:20;;;;;;;13.93;9.30;;;;;;;5.55;94.69;101510.75;5059526;28;20255;-82
2023/04/08 04:09:47;;;;;;;17.20;9.73;;;;;;;5.54;95.10;101506.41;5073506;28;20228;-81
2023/04/08 04:12:13;;;;;;;18.90;9.53;;;;;;;5.55;95.13;101513.41;5072669;28;20198;-81
2023/04/08 04:14:40;;;;;;;17.20;9.40;;;;;;;5.55;95.34;101513.41;5073795;28;20602;-82
2023/04/08 04:17:06;;;;;;;15.23;9.93;;;;;;;5.54;95.23;101518.75;5073703;28;20221;-82
2023/04/08 04:19:34;;;;;;;14.87;10.00;;;;;;;5.53;95.51;101509.97;5068454;28;20217;-82
2023/04/08 04:22:00;;;;;;;15.17;9.53;;;;;;;5.53;95.44;101514.38;5068359;28;20232;-82
2023/04/08 04:24:27;;;;;;;16.87;10.10;;;;;;;5.52;95.64;101521.44;5072923;28;20204;-81
2023/04/08 04:26:53;;;;;;;16.53;9.50;;;;;;;5.52;95.84;101512.66;5060669;28;20228;-81
2023/04/08 04:29:20;;;;;;;13.90;10.07;;;;;;;5.50;96.33;101520.63;5053523;28;20205;-82
2023/04/08 04:31:46;;;;;;;19.30;9.67;;;;;;;5.50;95.95;101522.38;5053329;28;20213;-81
2023/04/08 04:34:13;;;;;;;16.97;10.23;;;;;;;5.50;96.10;101530.31;5060025;28;20216;-82
2023/04/08 04:36:41;;;;;;;19.83;11.77;;;;;;;5.48;96.54;101534.78;5073416;28;20299;-82
2023/04/08 04:39:07;;;;;;;17.37;10.50;;;;;;;5.47;96.59;101530.41;5072886;28;20205;-81
2023/04/08 04:41:37;;;;;;;19.00;10.90;;;;;;;5.47;96.96;101540.97;5073222;28;20209;-82
2023/04/08 04:44:04;;;;;;;17.60;11.10;;;;;;;5.46;97.32;101541.88;5073045;28;20233;-81
2023/04/08 04:46:30;;;;;;;20.07;11.40;;;;;;;5.45;97.25;101542.78;5059998;28;20228;-82
2023/04/08 04:48:57;;;;;;;17.27;10.30;;;;;;;5.44;97.20;101538.41;5053077;28;20210;-82
2023/04/08 04:51:23;;;;;;;17.67;11.13;;;;;;;5.44;97.67;101543.69;5053013;28;20711;-82
2023/04/08 04:53:51;;;;;;;18.77;11.03;;;;;;;5.44;97.77;101549.84;5052300;28;20204;-82
2023/04/08 04:56:18;;;;;;;21.30;11.87;;;;;;;5.44;97.77;101552.47;5063813;28;20294;-82
2023/04/08 04:58:44;;;;;;;22.03;11.33;;;;;;;5.44;97.65;101557.75;5072900;28;20208;-82
2023/04/08 05:01:11;;;;;;;19.33;10.33;;;;;;;5.43;98.13;101556.03;5073029;28;20205;-80
2023/04/08 05:03:37;;;;;;;20.77;12.30;;;;;;;5.43;98.29;101563.94;5072387;28;20228;-81
2023/04/08 05:06:04;;;;;;;20.30;11.47;;;;;;;5.44;98.44;101568.34;5072376;28;20204;-81
2023/04/08 05:08:30;;;;;;;21.23;12.87;;;;;;;5.42;98.43;101567.50;5071966;28;20205;-81
2023/04/08 05:11:00;;;;;;;18.80;11.57;;;;;;;5.42;98.80;101570.16;5064842;28;20766;-82
2023/04/08 05:13:27;;;;;;;21.10;12.17;;;;;;;5.41;98.62;101567.53;5072425;28;20207;-82
2023/04/08 05:15:53;;;;;;;23.80;12.63;;;;;;;5.41;98.94;101563.13;5070827;28;20209;-81
2023/04/08 05:18:20;;;;;;;21.07;12.27;;;;;;;5.38;99.25;101568.50;5051754;28;20216;-81
2023/04/08 05:20:46;;;;;;;24.00;12.53;;;;;;;5.36;99.67;101570.34;5052423;28;20213;-81
2023/04/08 05:23:13;;;;;;;25.30;12.77;;;;;;;5.36;99.46;101566.81;5051787;28;20256;-82
2023/04/08 05:25:39;;;;;;;22.87;12.90;;;;;;;5.35;100.00;101571.25;5052587;28;20232;-82
2023/04/08 05:28:07;;;;;;;24.10;13.00;;;;;;;5.35;100.00;101568.59;5055510;28;20237;-82
2023/04/08 05:30:34;;;;;;;24.10;12.57;;;;;;;5.35;100.00;101573.88;5064241;28;20657;-82
2023/04/08 05:33:00;;;;;;;24.77;13.77;;;;;;;5.35;100.00;101571.25;5054846;28;20204;-81
2023/04/08 05:35:27;;;;;;;21.27;12.93;;;;;;;5.35;100.00;101575.66;5057357;28;20201;-82
2023/04/08 05:37:54;;;;;;;24.57;13.17;;;;;;;5.35;100.00;101573.88;5051502;28;20229;-82
2023/04/08 05:40:20;;;;;;;26.13;13.37;;;;;;;5.36;100.00;101580.91;5051457;28;20212;-82
2023/04/08 05:42:47;;;;;;;26.20;13.83;;;;;;;5.36;100.00;101578.25;5060749;28;20622;-81
2023/04/08 05:45:15;;;;;;;28.43;14.03;;;;;;;5.37;100.00;101576.50;5058865;28;20665;-81
2023/04/08 05:47:41;;;;;;;27.80;13.87;;;;;;;5.38;100.00;101581.69;5051584;28;20238;-82
2023/04/08 05:50:09;;;;;;;29.00;14.50;;;;;;;5.39;100.00;101583.44;5063355;28;20202;-82
2023/04/08 05:52:35;;;;;;;27.20;13.43;;;;;;;5.39;100.00;101587.84;5051575;28;20208;-82
2023/04/08 05:55:02;;;;;;;29.03;13.67;;;;;;;5.37;100.00;101587.91;5070307;28;20681;-81
2023/04/08 05:57:28;;;;;;;24.83;13.93;;;;;;;5.36;100.00;101593.25;5068305;28;20221;-82
2023/04/08 05:59:54;;;;;;;28.50;14.57;;;;;;;5.36;100.00;101583.53;5052016;28;20203;-81
2023/04/08 06:02:22;;;;;;;27.47;14.10;;;;;;;5.38;100.00;101596.69;5051920;28;20205;-81
2023/04/08 06:04:49;;;;;;;29.30;13.77;;;;;;;5.39;100.00;101588.72;5061193;28;20208;-81
2023/04/08 06:07:15;;;;;;;28.30;13.80;;;;;;;5.41;100.00;101597.47;5067037;28;20252;-81
2023/04/08 06:09:42;;;;;;;22.80;13.53;;;;;;;5.40;100.00;101594.88;5051342;28;20213;-81
2023/04/08 06:12:08;;;;;;;25.77;14.77;;;;;;;5.40;100.00;101594.88;5051977;28;20212;-82
2023/04/08 06:14:34;;;;;;;28.37;14.43;;;;;;;5.40;100.00;101594.88;5059620;28;20217;-81
2023/04/08 06:17:01;;;;;;;29.13;14.70;;;;;;;5.41;100.00;101600.13;5051242;28;20230;-82
2023/04/08 06:19:29;;;;;;;21.87;13.93;;;;;;;5.42;100.00;101599.22;5071587;28;20205;-82
2023/04/08 06:21:57;;;;;;;28.90;15.43;;;;;;;5.44;100.00;101609.72;5071123;28;20209;-81
2023/04/08 06:24:25;;;;;;;26.57;13.83;;;;;;;5.41;100.00;101608.03;5071506;28;20228;-81
2023/04/08 06:26:52;;;;;;;25.43;13.63;;;;;;;5.43;100.00;101606.22;5071447;28;20226;-81
2023/04/08 06:29:19;;;;;;;25.37;14.73;;;;;;;5.45;100.00;101608.81;5074797;28;20204;-81
2023/04/08 06:31:45;;;;;;;32.27;15.50;;;;;;;5.48;100.00;101611.41;5075701;28;20846;-82
2023/04/08 06:34:12;;;;;;;26.27;15.00;;;;;;;5.51;100.00;101614.81;5055848;28;20198;-81
2023/04/08 06:36:39;;;;;;;24.63;14.00;;;;;;;5.54;100.00;101624.44;5062859;28;20221;-82
2023/04/08 06:39:06;;;;;;;26.07;13.83;;;;;;;5.54;100.00;101620.03;5063543;28;20205;-81
2023/04/08 06:41:33;;;;;;;28.13;14.30;;;;;;;5.54;100.00;101620.03;5058850;28;20237;-82
2023/04/08 06:43:59;;;;;;;33.67;15.47;;;;;;;5.57;100.00;101621.69;5054281;28;20217;-82
2023/04/08 06:46:26;;;;;;;27.43;13.37;;;;;;;5.59;100.00;101633.09;5063304;28;20217;-82
2023/04/08 06:48:52;;;;;;;22.87;13.60;;;;;;;5.60;100.00;101632.19;5061405;28;20724;-82
2023/04/08 06:51:19;;;;;;;27.40;14.47;;;;;;;5.61;100.00;101635.69;5065403;28;20201;-81
2023/04/08 06:53:47;;;;;;;27.03;13.43;;;;;;;5.62;100.00;101638.31;5058542;28;20247;-82
2023/04/08 06:56:13;;;;;;;26.27;13.93;;;;;;;5.65;100.00;101637.34;5058592;28;20331;-82
2023/04/08 06:58:40;;;;;;;25.83;14.30;;;;;;;5.65;100.00;101640.00;5075365;28;20215;-82
2023/04/08 07:01:06;;;;;;;24.00;14.17;;;;;;;5.65;100.00;101640.00;5073857;28;20225;-81
2023/04/08 07:03:32;;;;;;;23.67;13.67;;;;;;;5.63;100.00;101644.47;5073975;28;20236;-82
2023/04/08 07:05:59;;;;;;;24.13;13.53;;;;;;;5.64;100.00;101649.69;5072157;28;20204;-82
2023/04/08 07:08:26;;;;;;;24.03;13.13;;;;;;;5.65;100.00;101646.16;5056718;28;20212;-81
2023/04/08 07:10:53;;;;;;;21.97;13.03;;;;;;;5.67;100.00;101652.28;5057751;28;20210;-82
2023/04/08 07:13:20;;;;;;;23.47;13.60;;;;;;;5.69;100.00;101652.22;5074058;28;20211;-82
2023/04/08 07:15:46;;;;;;;21.90;11.23;;;;;;;5.69;100.00;101657.50;5072478;28;20208;-82
2023/04/08 07:18:13;;;;;;;23.70;12.60;;;;;;;5.71;100.00;101653.06;5062389;28;20220;-82
2023/04/08 07:20:40;;;;;;;24.13;12.63;;;;;;;5.70;100.00;101651.31;5053283;28;20202;-82
2023/04/08 07:23:07;;;;;;;21.30;11.50;;;;;;;5.69;100.00;101647.81;5058432;28;20630;-82
2023/04/08 07:25:34;;;;;;;20.77;11.87;;;;;;;5.71;100.00;101656.56;5074028;28;20209;-82
2023/04/08 07:28:02;;;;;;;20.83;12.53;;;;;;;5.71;100.00;101653.06;5073390;28;20217;-82
2023/04/08 07:30:28;;;;;;;22.10;12.27;;;;;;;5.71;100.00;101656.56;5070966;28;20206;-82
2023/04/08 07:32:56;;;;;;;20.40;12.93;;;;;;;5.72;100.00;101660.09;5073686;28;20216;-81
2023/04/08 07:35:24;;;;;;;20.07;12.50;;;;;;;5.72;100.00;101660.09;5073430;28;20247;-81
2023/04/08 07:37:51;;;;;;;19.90;12.00;;;;;;;5.74;100.00;101668.81;5063749;28;20314;-81
2023/04/08 07:40:18;;;;;;;20.13;11.80;;;;;;;5.77;100.00;101671.38;5073568;28;20212;-81
2023/04/08 07:42:45;;;;;;;19.27;12.60;;;;;;;5.79;100.00;101664.28;5057874;28;20717;-82
2023/04/08 07:45:13;;;;;;;22.30;12.77;;;;;;;5.80;100.00;101673.94;5053600;28;20225;-81
2023/04/08 07:47:39;;;;;;;23.27;12.67;;;;;;;5.81;100.00;101673.03;5053484;28;20845;-81
2023/04/08 07:50:07;;;;;;;21.67;12.60;;;;;;;5.84;100.00;101667.66;5060902;28;20573;-82
2023/04/08 07:52:34;;;;;;;22.57;13.03;;;;;;;5.86;100.00;101669.38;5061389;28;20197;-81
2023/04/08 07:55:00;;;;;;;23.30;11.70;;;;;;;5.88;100.00;101672.88;5052775;28;20687;-82
2023/04/08 07:57:27;;;;;;;20.43;12.33;;;;;;;5.90;100.00;101675.47;5053710;28;20228;-82
2023/04/08 07:59:54;;;;;;;20.27;12.30;;;;;;;5.92;100.00;101678.91;5065240;28;20208;-82
2023/04/08 08:02:21;;;;;;;21.00;12.37;;;;;;;5.92;100.00;101679.78;5072435;28;20205;-81
2023/04/08 08:04:48;;;;;;;21.07;12.53;;;;;;;5.97;100.00;101674.38;5070308;28;20239;-82
2023/04/08 08:07:15;;;;;;;22.77;13.50;;;;;;;6.00;100.00;101676.06;5068606;28;20641;-81
2023/04/08 08:09:41;;;;;;;20.10;13.43;;;;;;;6.03;100.00;101681.28;5068524;28;20213;-82
2023/04/08 08:12:08;;;;;;;21.57;12.57;;;;;;;6.06;100.00;101697.06;5072187;28;20659;-82
2023/04/08 08:14:34;;;;;;;23.03;13.07;;;;;;;6.08;100.00;101695.25;5067030;28;20806;-82
2023/04/08 08:17:01;;;;;;;21.13;13.37;;;;;;;6.11;100.00;101700.41;5068787;28;20228;-82
2023/04/08 08:19:29;;;;;;;21.93;12.90;;;;;;;6.14;100.00;101692.41;5071258;28;20683;-82
2023/04/08 08:21:55;;;;;;;19.40;12.30;;;;;;;6.16;100.00;101698.53;5066314;28;20369;-81
2023/04/08 08:24:22;;;;;;;22.63;12.83;;;;;;;6.17;100.00;101697.63;5063365;28;20252;-82
2023/04/08 08:26:48;;;;;;;23.27;14.03;;;;;;;6.18;100.00;101708.16;5064870;28;20272;-82
2023/04/08 08:29:15;;;;;;;24.93;13.90;;;;;;;6.17;100.00;101706.41;5066667;28;20213;-82
2023/04/08 08:31:41;;;;;;;24.30;14.87;;;;;;;6.17;100.00;101711.72;5071533;28;20208;-81
2023/04/08 08:34:08;;;;;;;26.00;14.67;;;;;;;6.17;100.00;101702.91;5069102;28;20209;-81
2023/04/08 08:36:36;;;;;;;21.03;12.80;;;;;;;6.18;100.00;101713.44;5069780;28;20225;-81
2023/04/08 08:39:02;;;;;;;19.73;12.90;;;;;;;6.18;100.00;101713.44;5070149;28;20268;-81
2023/04/08 08:41:37;;;;;;;25.93;13.93;;;;;;;6.19;100.00;101722.25;5070695;28;20204;-81
2023/04/08 08:44:06;;;;;;;22.83;13.73;;;;;;;6.22;100.00;101724.81;5069499;28;20224;-81
2023/04/08 08:46:35;;;;;;;23.03;13.03;;;;;;;6.24;100.00;101718.56;5068769;28;20260;-81
2023/04/08 08:49:02;;;;;;;24.13;12.90;;;;;;;6.30;100.00;101714.00;5067281;28;20205;-82
2023/04/08 08:51:32;;;;;;;21.47;13.33;;;;;;;6.33;100.00;101716.56;5072125;28;20205;-81
2023/04/08 08:54:03;;;;;;;22.50;13.57;;;;;;;6.35;100.00;101714.75;5069477;28;20224;-80
2023/04/08 08:56:32;;;;;;;22.33;13.93;;;;;;;6.36;100.00;101712.06;5073351;28;20247;-81
2023/04/08 08:58:59;;;;;;;29.13;15.07;;;;;;;6.37;100.00;101732.31;5070855;28;20588;-81
2023/04/08 09:01:34;;;;;;;23.60;13.50;;;;;;;6.39;100.00;101733.13;5070579;28;20201;-82
2023/04/08 09:04:12;;;;;;;24.33;13.70;;;;;;;6.41;100.00;101730.44;5071944;28;20570;-82
2023/04/08 09:06:42;;;;;;;24.07;13.43;;;;;;;6.42;100.00;101735.69;5070347;28;20255;-82
2023/04/08 09:09:10;;;;;;;23.17;12.47;;;;;;;6.42;100.00;101727.75;5071249;28;20201;-83
2023/04/08 09:11:37;;;;;;;26.67;14.77;;;;;;;6.43;100.00;101734.78;5075120;28;20247;-83
2023/04/08 09:14:05;;;;;;;20.77;12.80;;;;;;;6.43;100.00;101737.44;5061490;28;20666;-81
2023/04/08 09:16:32;;;;;;;23.03;13.53;;;;;;;6.46;100.00;101739.09;5065147;28;20225;-83
2023/04/08 09:19:09;;;;;;;23.87;14.07;;;;;;;6.49;100.00;101739.00;5067159;28;20657;-83
2023/04/08 09:21:35;;;;;;;22.60;12.93;;;;;;;6.51;99.62;101738.06;5070047;28;20200;-82
2023/04/08 09:24:02;;;;;;;23.60;13.83;;;;;;;6.51;99.80;101748.66;5064968;28;20731;-83
2023/04/08 09:26:29;;;;;;;21.10;13.17;;;;;;;6.52;100.00;101755.69;5069012;28;20254;-82
2023/04/08 09:29:01;;;;;;;29.00;14.37;;;;;;;6.54;99.53;101760.94;5065114;28;20216;-81
2023/04/08 09:31:29;;;;;;;29.43;14.17;;;;;;;6.55;99.53;101755.59;5065805;28;20208;-82
2023/04/08 09:33:57;;;;;;;24.23;14.00;;;;;;;6.58;99.55;101758.16;5066942;28;20205;-81
2023/04/08 09:36:26;;;;;;;23.83;13.07;;;;;;;6.58;99.35;101765.22;5063465;28;20217;-82
2023/04/08 09:38:53;;;;;;;27.47;14.60;;;;;;;6.56;99.22;101756.47;5068927;28;20300;-82
2023/04/08 09:41:22;;;;;;;25.17;13.70;;;;;;;6.54;99.12;101767.09;5066559;28;20197;-81
2023/04/08 09:43:54;;;;;;;21.43;12.60;;;;;;;6.54;98.57;101769.75;5070107;28;20321;-83
2023/04/08 09:46:26;;;;;;;23.57;13.63;;;;;;;6.54;98.83;101780.31;5051140;28;20311;-85
2023/04/08 09:48:58;;;;;;;22.20;13.60;;;;;;;6.57;98.91;101771.44;5068934;28;20532;-81
2023/04/08 09:51:28;;;;;;;29.70;13.63;;;;;;;6.58;99.14;101774.03;5070606;28;20284;-80
2023/04/08 09:54:00;;;;;;;25.03;14.30;;;;;;;6.61;98.72;101781.03;5070943;28;20676;-81
2023/04/08 09:56:34;;;;;;;27.27;13.57;;;;;;;6.64;99.04;101767.69;5070737;28;20308;-82
2023/04/08 09:59:09;;;;;;;26.10;14.37;;;;;;;6.67;99.34;101770.25;5071153;28;20621;-81
2023/04/08 10:01:38;;;;;;;27.90;13.30;;;;;;;6.72;98.81;101767.47;5071729;28;20188;-81
2023/04/08 10:04:06;;;;;;;22.87;13.33;;;;;;;6.76;99.22;101764.69;5055803;28;20554;-81
2023/04/08 10:06:34;;;;;;;23.57;13.10;;;;;;;6.79;99.41;101764.59;5058911;28;20232;-81
2023/04/08 10:09:03;;;;;;;23.20;14.13;;;;;;;6.81;99.18;101765.38;5075432;28;20211;-81
2023/04/08 10:11:30;;;;;;;22.30;13.00;;;;;;;6.83;98.49;101773.28;5075215;28;20196;-81
2023/04/08 10:13:57;;;;;;;25.10;14.23;;;;;;;6.82;98.52;101777.72;5058800;28;20212;-81
2023/04/08 10:16:26;;;;;;;27.13;13.73;;;;;;;6.85;98.94;101775.00;5066220;28;20728;-81
2023/04/08 10:18:54;;;;;;;24.93;14.40;;;;;;;6.88;98.84;101774.03;5067624;28;20273;-81
2023/04/08 10:21:38;;;;;;;29.13;13.37;;;;;;;6.91;98.42;101785.41;5075758;28;20205;-81
2023/04/08 10:24:11;;;;;;;23.70;12.80;;;;;;;6.95;98.22;101783.53;5066589;28;20240;-81
2023/04/08 10:26:40;;;;;;;27.93;13.03;;;;;;;6.94;98.23;101784.44;5057285;28;20214;-81
2023/04/08 10:29:31;;;;;;;28.87;13.77;;;;;;;6.94;98.24;101777.38;5066269;28;20200;-82
2023/04/08 10:32:00;;;;;;;24.07;12.97;;;;;;;6.94;97.96;101773.84;5072629;28;20199;-81
2023/04/08 10:34:27;;;;;;;27.20;13.17;;;;;;;6.95;98.11;101768.50;5076291;28;20557;-81
2023/04/08 10:36:57;;;;;;;24.27;14.60;;;;;;;6.95;97.89;101768.50;5076451;28;20232;-81
2023/04/08 10:39:26;;;;;;;23.03;13.10;;;;;;;6.97;97.65;101765.81;5068095;28;20979;-81
2023/04/08 10:41:52;;;;;;;21.93;13.67;;;;;;;6.98;97.36;101770.22;5071298;28;20212;-81
2023/04/08 10:44:21;;;;;;;22.93;13.40;;;;;;;6.99;97.56;101773.72;5079790;28;20224;-81
2023/04/08 10:46:49;;;;;;;22.47;13.80;;;;;;;7.00;97.21;101778.06;5080132;28;20236;-83
2023/04/08 10:49:17;;;;;;;24.47;14.03;;;;;;;7.01;96.98;101769.22;5079842;28;20211;-80
2023/04/08 10:51:45;;;;;;;27.73;14.73;;;;;;;7.05;97.17;101781.47;5077874;28;20291;-80
2023/04/08 10:54:12;;;;;;;26.73;13.83;;;;;;;7.06;97.30;101780.56;5079433;28;20204;-81
2023/04/08 10:56:45;;;;;;;23.90;14.07;;;;;;;7.05;96.89;101779.69;5077136;28;20244;-79
2023/04/08 10:59:15;;;;;;;24.17;13.80;;;;;;;7.06;97.05;101778.78;5076328;28;20271;-83
2023/04/08 11:01:43;;;;;;;24.63;14.53;;;;;;;7.06;97.16;101778.78;5077942;28;20204;-82
2023/04/08 11:04:14;;;;;;;24.57;14.60;;;;;;;7.06;97.28;101784.06;5078657;28;20235;-82
2023/04/08 11:06:43;;;;;;;24.80;13.80;;;;;;;7.08;96.85;101784.03;5078184;28;20229;-84
2023/04/08 11:09:11;;;;;;;28.57;13.80;;;;;;;7.08;97.10;101784.88;5077421;28;20223;-82
2023/04/08 11:11:37;;;;;;;23.73;14.47;;;;;;;7.11;97.02;101789.22;5078486;28;20221;-83
2023/04/08 11:14:04;;;;;;;23.37;14.73;;;;;;;7.13;96.61;101790.91;5077726;28;20205;-82
2023/04/08 11:16:31;;;;;;;22.73;13.00;;;;;;;7.16;96.71;101793.47;5078538;28;20633;-82
2023/04/08 11:18:58;;;;;;;25.83;14.30;;;;;;;7.19;96.89;101797.78;5078163;28;20217;-83
2023/04/08 11:21:28;;;;;;;23.33;14.27;;;;;;;7.20;96.79;101794.22;5077314;28;20205;-82